createdAt,value
2018-09-05T00:02:27.946Z,18.37
2018-09-05T00:04:55.289Z,22.43
2018-09-05T00:07:22.659Z,19.87
2018-09-05T00:09:50.003Z,18.83
2018-09-05T00:12:17.394Z,23.23
2018-09-05T00:14:44.749Z,17.80
2018-09-05T00:17:12.104Z,21.73
2018-09-05T00:19:39.446Z,22.27
2018-09-05T00:22:07.732Z,21.40
2018-09-05T00:24:35.055Z,26.10
2018-09-05T00:27:02.388Z,22.20
2018-09-05T00:29:30.664Z,21.80
2018-09-05T00:31:58.668Z,22.70
2018-09-05T00:34:26.054Z,22.93
2018-09-05T00:36:53.512Z,22.17
2018-09-05T00:39:20.856Z,25.00
2018-09-05T00:41:48.227Z,22.30
2018-09-05T00:44:15.582Z,22.47
2018-09-05T00:46:42.961Z,22.70
2018-09-05T00:49:10.303Z,28.00
2018-09-05T00:51:37.626Z,29.47
2018-09-05T00:54:05.065Z,29.87
2018-09-05T00:56:32.509Z,26.13
2018-09-05T00:59:00.829Z,24.50
2018-09-05T01:01:28.767Z,30.53
2018-09-05T01:03:56.178Z,24.23
2018-09-05T01:06:23.534Z,26.67
2018-09-05T01:08:50.931Z,29.17
2018-09-05T01:11:18.252Z,26.87
2018-09-05T01:13:45.610Z,23.30
2018-09-05T01:16:12.953Z,27.07
2018-09-05T01:18:40.321Z,31.53
2018-09-05T01:21:07.670Z,22.10
2018-09-05T01:23:35.015Z,23.40
2018-09-05T01:26:02.696Z,27.10
2018-09-05T01:28:31.158Z,25.10
2018-09-05T01:30:58.574Z,26.03
2018-09-05T01:33:25.986Z,28.40
2018-09-05T01:35:59.221Z,23.27
2018-09-05T01:38:26.628Z,27.03
2018-09-05T01:40:53.968Z,22.37
2018-09-05T01:43:21.324Z,26.97
2018-09-05T01:45:48.677Z,23.17
2018-09-05T01:48:16.022Z,25.13
2018-09-05T01:50:44.129Z,26.37
2018-09-05T01:53:11.866Z,24.87
2018-09-05T01:55:39.188Z,31.13
2018-09-05T01:58:06.731Z,28.60
2018-09-05T02:00:35.222Z,28.30
2018-09-05T02:03:03.717Z,29.20
2018-09-05T02:05:31.124Z,26.63
2018-09-05T02:07:59.098Z,24.57
2018-09-05T02:10:26.507Z,27.00
2018-09-05T02:12:53.868Z,30.60
2018-09-05T02:15:21.283Z,34.37
2018-09-05T02:17:48.613Z,26.83
2018-09-05T02:20:15.950Z,28.67
2018-09-05T02:22:43.284Z,26.07
2018-09-05T02:25:11.126Z,28.47
2018-09-05T02:27:39.554Z,31.90
2018-09-05T02:30:07.168Z,33.20
2018-09-05T02:32:34.617Z,35.50
2018-09-05T02:35:02.023Z,28.60
2018-09-05T02:37:29.434Z,29.00
2018-09-05T02:39:56.830Z,29.20
2018-09-05T02:42:24.152Z,29.67
2018-09-05T02:44:51.506Z,30.13
2018-09-05T02:47:18.872Z,26.83
2018-09-05T02:49:46.224Z,22.57
2018-09-05T02:52:13.542Z,26.13
2018-09-05T02:54:41.462Z,25.20
2018-09-05T02:57:10.183Z,27.53
2018-09-05T02:59:37.679Z,29.27
2018-09-05T03:02:05.129Z,31.00
2018-09-05T03:04:32.501Z,23.97
2018-09-05T03:06:59.845Z,23.80
2018-09-05T03:09:27.242Z,27.30
2018-09-05T03:11:54.566Z,26.60
2018-09-05T03:14:21.912Z,23.90
2018-09-05T03:16:49.224Z,23.77
2018-09-05T03:19:16.573Z,26.77
2018-09-05T03:21:43.903Z,26.50
2018-09-05T03:24:12.106Z,22.17
2018-09-05T03:26:40.338Z,27.53
2018-09-05T03:29:07.750Z,34.80
2018-09-05T03:31:35.165Z,28.83
2018-09-05T03:34:02.510Z,33.77
2018-09-05T03:36:29.877Z,70.83
2018-09-05T03:38:57.226Z,28.40
2018-09-05T03:41:24.572Z,28.57
2018-09-05T03:43:51.900Z,26.77
2018-09-05T03:46:19.233Z,29.63
2018-09-05T03:48:46.563Z,26.10
2018-09-05T03:51:14.023Z,24.40
2018-09-05T03:53:42.281Z,25.33
2018-09-05T03:56:13.839Z,26.43
2018-09-05T03:58:42.131Z,31.70
2018-09-05T04:01:10.087Z,25.07
2018-09-05T04:03:37.458Z,25.70
2018-09-05T04:06:04.978Z,23.87
2018-09-05T04:08:32.306Z,26.80
2018-09-05T04:10:59.679Z,29.43
2018-09-05T04:13:27.004Z,27.33
2018-09-05T04:15:54.385Z,29.27
2018-09-05T04:18:21.898Z,28.30
2018-09-05T04:20:49.242Z,28.77
2018-09-05T04:23:16.559Z,28.57
2018-09-05T04:25:44.221Z,34.47
2018-09-05T04:28:12.759Z,28.40
2018-09-05T04:30:40.598Z,33.60
2018-09-05T04:33:07.975Z,35.13
2018-09-05T04:35:35.350Z,31.03
2018-09-05T04:38:02.757Z,27.13
2018-09-05T04:40:30.200Z,27.97
2018-09-05T04:42:57.581Z,30.40
2018-09-05T04:45:24.967Z,31.27
2018-09-05T04:47:52.492Z,33.67
2018-09-05T04:50:19.891Z,29.97
2018-09-05T04:52:47.360Z,26.37
2018-09-05T04:55:14.916Z,32.23
2018-09-05T04:57:43.498Z,25.57
2018-09-05T05:00:11.740Z,32.30
2018-09-05T05:02:39.174Z,29.70
2018-09-05T05:05:06.530Z,30.10
2018-09-05T05:07:33.907Z,31.93
2018-09-05T05:10:01.301Z,23.13
2018-09-05T05:12:28.670Z,27.73
2018-09-05T05:14:56.000Z,24.13
2018-09-05T05:17:23.351Z,25.23
2018-09-05T05:19:50.719Z,33.67
2018-09-05T05:22:18.074Z,26.03
2018-09-05T05:24:45.551Z,23.45
2018-09-05T05:27:14.117Z,24.93
2018-09-05T05:29:41.943Z,27.10
2018-09-05T05:32:09.366Z,26.80
2018-09-05T05:34:36.742Z,36.43
2018-09-05T05:37:04.121Z,40.30
2018-09-05T05:39:31.453Z,33.03
2018-09-05T05:41:59.231Z,28.20
2018-09-05T05:44:26.566Z,32.23
2018-09-05T05:46:53.925Z,27.00
2018-09-05T05:49:21.258Z,25.50
2018-09-05T05:51:48.608Z,28.10
2018-09-05T05:54:16.155Z,33.30
2018-09-05T05:56:44.626Z,29.30
2018-09-05T05:59:12.462Z,26.07
2018-09-05T06:01:39.904Z,28.03
2018-09-05T06:04:07.253Z,32.53
2018-09-05T06:06:34.572Z,31.80
2018-09-05T06:09:01.943Z,30.77
2018-09-05T06:11:29.310Z,38.40
2018-09-05T06:13:56.678Z,32.00
2018-09-05T06:16:24.022Z,33.10
2018-09-05T06:18:51.363Z,39.00
2018-09-05T06:21:18.909Z,42.50
2018-09-05T06:23:46.614Z,34.83
2018-09-05T06:26:15.034Z,34.77
2018-09-05T06:28:42.871Z,30.90
2018-09-05T06:31:10.631Z,31.63
2018-09-05T06:33:38.064Z,27.70
2018-09-05T06:36:05.401Z,27.67
2018-09-05T06:38:32.741Z,29.27
2018-09-05T06:41:00.079Z,29.27
2018-09-05T06:43:27.645Z,30.67
2018-09-05T06:45:54.982Z,33.47
2018-09-05T06:48:22.351Z,57.77
2018-09-05T06:50:53.186Z,53.37
2018-09-05T06:53:20.570Z,37.93
2018-09-05T06:55:47.895Z,33.00
2018-09-05T06:58:16.384Z,33.20
2018-09-05T07:00:44.750Z,33.40
2018-09-05T07:03:12.186Z,34.63
2018-09-05T07:05:39.609Z,32.67
2018-09-05T07:08:06.993Z,31.07
2018-09-05T07:10:34.339Z,40.63
2018-09-05T07:13:01.730Z,38.30
2018-09-05T07:15:29.046Z,37.73
2018-09-05T07:17:56.370Z,33.60
2018-09-05T07:20:23.721Z,37.73
2018-09-05T07:22:51.036Z,31.53
2018-09-05T07:25:18.391Z,38.67
2018-09-05T07:27:46.605Z,38.03
2018-09-05T07:30:16.186Z,42.07
2018-09-05T07:32:44.236Z,38.40
2018-09-05T07:35:11.656Z,47.80
2018-09-05T07:37:38.978Z,33.07
2018-09-05T07:40:06.324Z,37.70
2018-09-05T07:42:33.646Z,36.93
2018-09-05T07:45:01.045Z,32.87
2018-09-05T07:47:28.376Z,38.30
2018-09-05T07:49:55.736Z,38.43
2018-09-05T07:52:23.059Z,33.83
2018-09-05T07:54:50.681Z,30.87
2018-09-05T07:57:18.433Z,34.53
2018-09-05T07:59:46.847Z,35.90
2018-09-05T08:02:14.750Z,34.60
2018-09-05T08:04:42.235Z,28.80
2018-09-05T08:07:09.553Z,36.77
2018-09-05T08:09:36.896Z,31.67
2018-09-05T08:12:04.308Z,35.52
2018-09-05T08:14:31.614Z,40.40
2018-09-05T08:16:58.931Z,32.70
2018-09-05T08:19:26.294Z,41.50
2018-09-05T08:21:53.626Z,33.73
2018-09-05T08:24:21.141Z,30.60
2018-09-05T08:26:48.606Z,33.63
2018-09-05T08:29:17.120Z,23.87
2018-09-05T08:31:44.759Z,37.90
2018-09-05T08:34:12.169Z,43.67
2018-09-05T08:36:39.712Z,24.87
2018-09-05T08:39:08.643Z,24.30
2018-09-05T08:41:35.980Z,23.93
2018-09-05T08:44:03.434Z,33.20
2018-09-05T08:46:30.762Z,30.40
2018-09-05T08:48:58.079Z,39.17
2018-09-05T08:51:25.441Z,33.77
2018-09-05T08:53:52.761Z,34.80
2018-09-05T08:56:20.301Z,23.10
2018-09-05T08:58:48.429Z,40.87
2018-09-05T09:01:16.602Z,38.10
2018-09-05T09:03:43.994Z,43.57
2018-09-05T09:06:11.338Z,32.60
2018-09-05T09:08:39.381Z,26.20
2018-09-05T09:11:06.798Z,29.40
2018-09-05T09:13:34.122Z,27.00
2018-09-05T09:16:01.498Z,35.43
2018-09-05T09:18:28.874Z,29.67
2018-09-05T09:20:56.241Z,36.40
2018-09-05T09:23:23.553Z,34.33
2018-09-05T09:25:50.925Z,40.17
2018-09-05T09:28:18.330Z,66.37
2018-09-05T09:30:45.649Z,36.10
2018-09-05T09:33:13.129Z,30.53
2018-09-05T09:35:41.345Z,27.10
2018-09-05T09:38:09.181Z,31.50
2018-09-05T09:40:36.588Z,31.33
2018-09-05T09:43:03.915Z,29.40
2018-09-05T09:45:31.300Z,21.60
2018-09-05T09:47:58.613Z,30.83
2018-09-05T09:50:25.961Z,28.20
2018-09-05T09:52:53.301Z,25.77
2018-09-05T09:55:20.630Z,30.67
2018-09-05T09:57:47.951Z,19.83
2018-09-05T10:00:19.634Z,21.60
2018-09-05T10:02:52.292Z,59.80
2018-09-05T10:05:24.979Z,36.93
2018-09-05T10:07:57.631Z,35.00
2018-09-05T10:10:30.323Z,31.07
2018-09-05T10:13:03.133Z,25.63
2018-09-05T10:15:35.919Z,24.60
2018-09-05T10:18:08.847Z,24.30
2018-09-05T10:20:36.285Z,32.90
2018-09-05T10:23:03.624Z,32.77
2018-09-05T10:25:30.940Z,40.50
2018-09-05T10:27:58.281Z,35.07
2018-09-05T10:30:25.593Z,21.73
2018-09-05T10:32:52.933Z,19.67
2018-09-05T10:35:20.251Z,27.50
2018-09-05T10:37:47.620Z,21.03
2018-09-05T10:40:14.996Z,20.20
2018-09-05T10:42:43.151Z,25.73
2018-09-05T10:45:11.525Z,18.23
2018-09-05T10:47:38.953Z,27.13
2018-09-05T10:50:06.336Z,34.73
2018-09-05T10:52:33.708Z,22.20
2018-09-05T10:55:01.022Z,21.03
2018-09-05T10:57:28.361Z,21.00
2018-09-05T10:59:55.684Z,24.50
2018-09-05T11:02:23.068Z,22.50
2018-09-05T11:04:50.385Z,28.77
2018-09-05T11:07:17.752Z,31.70
2018-09-05T11:09:45.081Z,24.57
2018-09-05T11:12:13.256Z,21.20
2018-09-05T11:14:41.351Z,20.20
2018-09-05T11:17:08.721Z,25.00
2018-09-05T11:19:36.047Z,30.80
2018-09-05T11:22:03.398Z,31.10
2018-09-05T11:24:30.731Z,21.40
2018-09-05T11:26:58.089Z,20.83
2018-09-05T11:29:25.444Z,19.10
2018-09-05T11:31:52.830Z,20.40
2018-09-05T11:34:20.150Z,22.10
2018-09-05T11:36:47.536Z,22.00
2018-09-05T11:39:15.169Z,23.70
2018-09-05T11:41:43.612Z,24.23
2018-09-05T11:44:11.794Z,21.50
2018-09-05T11:46:39.567Z,30.73
2018-09-05T11:49:07.729Z,37.77
2018-09-05T11:51:35.056Z,32.60
2018-09-05T11:54:02.413Z,36.37
2018-09-05T11:56:29.731Z,20.67
2018-09-05T11:58:57.078Z,21.43
2018-09-05T12:01:25.143Z,25.63
2018-09-05T12:03:52.491Z,24.70
2018-09-05T12:06:19.826Z,41.00
2018-09-05T12:08:47.181Z,25.97
2018-09-05T12:11:14.722Z,19.07
2018-09-05T12:13:43.134Z,19.87
2018-09-05T12:16:10.792Z,19.00
2018-09-05T12:18:38.326Z,18.83
2018-09-05T12:21:05.649Z,22.47
2018-09-05T12:23:32.990Z,13.70
2018-09-05T12:26:00.402Z,20.63
2018-09-05T12:28:27.759Z,15.90
2018-09-05T12:30:55.118Z,26.03
2018-09-05T12:33:22.466Z,18.03
2018-09-05T12:35:49.798Z,25.63
2018-09-05T12:38:17.208Z,20.77
2018-09-05T12:40:44.966Z,24.33
2018-09-05T12:43:13.234Z,22.67
2018-09-05T12:45:40.595Z,24.77
2018-09-05T12:48:08.009Z,16.40
2018-09-05T12:50:35.353Z,18.97
2018-09-05T12:53:02.683Z,20.53
2018-09-05T12:55:30.016Z,20.40
2018-09-05T12:57:57.350Z,21.17
2018-09-05T13:00:24.800Z,16.47
2018-09-05T13:02:52.145Z,22.13
2018-09-05T13:05:19.586Z,20.80
2018-09-05T13:07:46.925Z,25.40
2018-09-05T13:10:15.395Z,16.97
2018-09-05T13:12:43.659Z,27.87
2018-09-05T13:15:11.097Z,17.97
2018-09-05T13:17:38.516Z,19.47
2018-09-05T13:20:05.926Z,18.47
2018-09-05T13:22:33.281Z,21.53
2018-09-05T13:25:00.623Z,17.10
2018-09-05T13:27:28.037Z,20.30
2018-09-05T13:29:55.399Z,23.40
2018-09-05T13:32:22.738Z,16.20
2018-09-05T13:34:50.077Z,21.00
2018-09-05T13:37:17.401Z,18.20
2018-09-05T13:39:45.677Z,21.67
2018-09-05T13:42:13.753Z,16.37
2018-09-05T13:44:41.163Z,19.30
2018-09-05T13:47:08.918Z,19.60
2018-09-05T13:49:36.297Z,31.27
2018-09-05T13:52:04.650Z,14.63
2018-09-05T13:54:32.916Z,21.13
2018-09-05T13:57:00.317Z,17.07
2018-09-05T13:59:27.711Z,22.87
2018-09-05T14:01:55.235Z,19.07
2018-09-05T14:04:22.722Z,19.33
2018-09-05T14:06:50.072Z,18.03
2018-09-05T14:09:17.538Z,18.53
2018-09-05T14:11:45.835Z,18.97
2018-09-05T14:14:13.671Z,21.43
2018-09-05T14:16:41.050Z,20.70
2018-09-05T14:19:08.391Z,14.90
2018-09-05T14:21:35.713Z,19.27
2018-09-05T14:24:03.053Z,18.57
2018-09-05T14:26:30.433Z,20.17
2018-09-05T14:28:57.761Z,17.50
2018-09-05T14:31:25.184Z,38.60
2018-09-05T14:33:52.805Z,17.40
2018-09-05T14:36:20.180Z,17.30
2018-09-05T14:38:47.793Z,19.87
2018-09-05T14:41:21.597Z,18.33
2018-09-05T14:43:48.942Z,14.67
2018-09-05T14:46:17.070Z,19.77
2018-09-05T14:48:46.351Z,21.33
2018-09-05T14:54:01.977Z,18.87
2018-09-05T14:56:29.715Z,18.60
2018-09-05T14:58:57.397Z,16.60
2018-09-05T15:04:20.445Z,18.70
2018-09-05T15:06:48.169Z,19.70
2018-09-05T15:09:16.673Z,16.83
2018-09-05T15:11:44.608Z,16.97
2018-09-05T15:14:12.902Z,28.53
2018-09-05T15:16:40.300Z,16.90
2018-09-05T15:19:08.635Z,29.80
2018-09-05T15:21:36.260Z,20.30
2018-09-05T15:24:03.611Z,18.83
2018-09-05T15:26:31.031Z,14.50
2018-09-05T15:28:58.402Z,16.73
2018-09-05T15:31:25.760Z,15.40
2018-09-05T15:33:53.130Z,14.80
2018-09-05T15:36:20.521Z,16.97
2018-09-05T15:38:48.635Z,15.40
2018-09-05T15:41:17.396Z,20.80
2018-09-05T15:43:45.323Z,15.00
2018-09-05T15:46:12.721Z,18.60
2018-09-05T15:48:40.062Z,16.90
2018-09-05T15:51:07.453Z,32.47
2018-09-05T15:53:34.812Z,39.67
2018-09-05T15:56:02.271Z,18.03
2018-09-05T15:58:29.717Z,16.60
2018-09-05T16:00:57.103Z,15.33
2018-09-05T16:03:24.967Z,17.40
2018-09-05T16:05:52.339Z,15.53
2018-09-05T16:08:19.821Z,14.60
2018-09-05T16:10:48.415Z,22.33
2018-09-05T16:13:16.454Z,14.97
2018-09-05T16:15:43.993Z,19.70
2018-09-05T16:18:11.310Z,17.17
2018-09-05T16:20:38.694Z,20.27
2018-09-05T16:23:06.310Z,20.53
2018-09-05T16:25:33.643Z,21.43
2018-09-05T16:28:01.015Z,14.43
2018-09-05T16:30:28.350Z,20.63
2018-09-05T16:32:55.875Z,16.50
2018-09-05T16:35:23.303Z,16.33
2018-09-05T16:37:50.774Z,20.00
2018-09-05T16:40:19.130Z,14.90
2018-09-05T16:42:47.062Z,17.17
2018-09-05T16:45:14.521Z,18.87
2018-09-05T16:47:41.989Z,19.53
2018-09-05T16:50:09.358Z,19.83
2018-09-05T16:52:36.778Z,16.53
2018-09-05T16:55:04.129Z,15.70
2018-09-05T16:57:31.623Z,19.53
2018-09-05T16:59:58.938Z,13.70
2018-09-05T17:02:26.306Z,20.57
2018-09-05T17:04:54.215Z,21.70
2018-09-05T17:07:21.732Z,18.70
2018-09-05T17:09:50.167Z,15.83
2018-09-05T17:12:18.007Z,13.73
2018-09-05T17:14:45.417Z,14.33
2018-09-05T17:17:12.780Z,15.00
2018-09-05T17:19:40.142Z,14.17
2018-09-05T17:22:07.616Z,15.87
2018-09-05T17:24:34.938Z,16.60
2018-09-05T17:27:02.310Z,24.00
2018-09-05T17:29:29.629Z,18.33
2018-09-05T17:31:56.945Z,15.70
2018-09-05T17:34:24.335Z,14.93
2018-09-05T17:36:51.951Z,13.83
2018-09-05T17:39:20.439Z,21.27
2018-09-05T17:41:48.219Z,17.23
2018-09-05T17:44:15.621Z,18.70
2018-09-05T17:46:42.950Z,16.87
2018-09-05T17:49:10.621Z,17.60
2018-09-05T17:51:37.972Z,19.30
2018-09-05T17:54:05.650Z,16.60
2018-09-05T17:56:33.022Z,17.47
2018-09-05T17:59:00.415Z,17.13
2018-09-05T18:01:27.827Z,15.20
2018-09-05T18:03:55.215Z,19.83
2018-09-05T18:06:23.051Z,18.47
2018-09-05T18:08:51.706Z,18.73
2018-09-05T18:11:19.535Z,16.93
2018-09-05T18:13:46.973Z,19.33
2018-09-05T18:16:14.361Z,17.70
2018-09-05T18:18:41.874Z,20.40
2018-09-05T18:21:09.283Z,17.63
2018-09-05T18:23:36.706Z,38.70
2018-09-05T18:26:04.051Z,27.83
2018-09-05T18:28:31.664Z,22.63
2018-09-05T18:30:59.443Z,20.23
2018-09-05T18:33:27.167Z,21.57
2018-09-05T18:35:54.721Z,20.30
2018-09-05T18:38:23.037Z,23.03
2018-09-05T18:40:51.169Z,23.33
2018-09-05T18:43:18.510Z,24.40
2018-09-05T18:45:45.849Z,28.93
2018-09-05T18:48:13.241Z,24.90
2018-09-05T18:50:40.640Z,26.97
2018-09-05T18:53:11.978Z,24.37
2018-09-05T18:55:40.122Z,27.60
2018-09-05T18:58:07.465Z,21.10
2018-09-05T19:00:35.214Z,20.30
2018-09-05T19:03:02.544Z,31.40
2018-09-05T19:05:29.900Z,23.43
2018-09-05T19:07:57.229Z,22.00
2018-09-05T19:10:25.021Z,22.67
2018-09-05T19:12:53.771Z,24.60
2018-09-05T19:15:21.733Z,21.30
2018-09-05T19:17:49.478Z,26.63
2018-09-05T19:20:16.843Z,19.33
2018-09-05T19:22:44.209Z,22.93
2018-09-05T19:25:11.535Z,27.17
2018-09-05T19:27:38.877Z,22.83
2018-09-05T19:30:06.246Z,22.00
2018-09-05T19:32:33.556Z,20.60
2018-09-05T19:35:00.907Z,21.50
2018-09-05T19:37:28.233Z,19.70
2018-09-05T19:39:55.946Z,19.50
2018-09-05T19:42:24.345Z,21.50
2018-09-05T19:44:52.245Z,23.60
2018-09-05T19:47:19.891Z,27.53
2018-09-05T19:49:47.329Z,26.30
2018-09-05T19:52:14.908Z,26.83
2018-09-05T19:54:42.293Z,24.03
2018-09-05T19:57:09.631Z,22.10
2018-09-05T19:59:36.998Z,20.63
2018-09-05T20:02:04.356Z,24.03
2018-09-05T20:04:31.705Z,24.90
2018-09-05T20:06:59.057Z,22.90
2018-09-05T20:09:26.635Z,20.90
2018-09-05T20:11:55.097Z,25.10
2018-09-05T20:14:22.873Z,23.87
2018-09-05T20:16:50.307Z,30.43
2018-09-05T20:19:17.698Z,26.53
2018-09-05T20:21:45.069Z,24.02
2018-09-05T20:24:12.420Z,26.80
2018-09-05T20:26:39.785Z,26.73
2018-09-05T20:29:07.129Z,29.90
2018-09-05T20:31:34.506Z,31.57
2018-09-05T20:34:01.942Z,25.00
2018-09-05T20:36:29.359Z,26.03
2018-09-05T20:38:57.078Z,30.37
2018-09-05T20:41:25.723Z,29.07
2018-09-05T20:43:53.380Z,22.83
2018-09-05T20:46:20.780Z,27.37
2018-09-05T20:48:48.106Z,23.63
2018-09-05T20:51:15.596Z,25.17
2018-09-05T20:53:42.934Z,27.70
2018-09-05T20:56:10.390Z,22.30
2018-09-05T20:58:37.816Z,24.80
2018-09-05T21:01:05.698Z,24.85
2018-09-05T21:03:33.252Z,25.03
2018-09-05T21:06:01.142Z,27.00
2018-09-05T21:08:28.562Z,26.13
2018-09-05T21:10:57.083Z,30.13
2018-09-05T21:13:25.225Z,26.80
2018-09-05T21:15:52.635Z,21.27
2018-09-05T21:18:19.980Z,23.23
2018-09-05T21:20:47.353Z,23.27
2018-09-05T21:23:14.810Z,25.27
2018-09-05T21:25:42.134Z,25.83
2018-09-05T21:28:09.492Z,28.50
2018-09-05T21:30:36.846Z,25.60
2018-09-05T21:33:04.230Z,27.53
2018-09-05T21:35:31.729Z,28.50
2018-09-05T21:37:59.340Z,25.23
2018-09-05T21:40:27.823Z,26.40
2018-09-05T21:42:55.847Z,26.17
2018-09-05T21:45:23.268Z,24.00
2018-09-05T21:47:50.630Z,24.77
2018-09-05T21:50:17.974Z,27.13
2018-09-05T21:52:45.415Z,28.17
2018-09-05T21:55:12.728Z,25.57
2018-09-05T21:57:40.074Z,24.50
2018-09-05T22:00:08.029Z,26.27
2018-09-05T22:02:35.426Z,27.40
2018-09-05T22:05:02.812Z,24.97
2018-09-05T22:07:30.319Z,27.70
2018-09-05T22:09:58.626Z,22.80
2018-09-05T22:12:26.466Z,31.53
2018-09-05T22:14:53.895Z,27.60
2018-09-05T22:17:21.320Z,28.03
2018-09-05T22:19:48.654Z,29.47
2018-09-05T22:22:16.057Z,28.50
2018-09-05T22:24:43.419Z,24.33
2018-09-05T22:27:10.785Z,24.53
2018-09-05T22:29:38.563Z,30.97
2018-09-05T22:32:05.941Z,28.90
2018-09-05T22:34:33.288Z,29.13
2018-09-05T22:37:00.921Z,27.20
2018-09-05T22:39:29.364Z,28.13
2018-09-05T22:41:57.284Z,26.23
2018-09-05T22:44:30.425Z,29.10
2018-09-05T22:47:03.281Z,27.80
2018-09-05T22:49:41.598Z,30.03
2018-09-05T22:54:25.111Z,30.67
2018-09-05T22:57:03.264Z,29.10
2018-09-05T22:59:36.489Z,25.00
2018-09-05T23:02:09.286Z,30.60
2018-09-05T23:04:42.059Z,26.90
2018-09-05T23:07:15.824Z,28.07
2018-09-05T23:09:48.718Z,29.17
2018-09-05T23:12:21.603Z,26.77
2018-09-05T23:14:56.426Z,31.33
2018-09-05T23:17:29.982Z,29.50
2018-09-05T23:20:03.347Z,31.10
2018-09-05T23:22:36.251Z,30.17
2018-09-05T23:25:03.722Z,30.33
2018-09-05T23:27:31.623Z,30.00
2018-09-05T23:29:59.990Z,29.70
2018-09-05T23:32:27.331Z,30.17
2018-09-05T23:34:54.745Z,28.70
2018-09-05T23:37:22.088Z,26.70
2018-09-05T23:39:49.439Z,30.47
2018-09-05T23:42:16.763Z,29.60
2018-09-05T23:44:44.134Z,29.73
2018-09-05T23:47:11.471Z,36.07
2018-09-05T23:49:38.839Z,32.00
2018-09-05T23:52:06.231Z,34.53
2018-09-05T23:54:33.644Z,33.60
2018-09-05T23:57:01.987Z,33.67
2018-09-05T23:59:29.978Z,35.60
